sensor_id;sensor_type;location;lat;lon;timestamp;pressure;altitude;pressure_sealevel;temperature;humidity
3096;BME280;1558;42.700;23.360;2022-09-17T00:01:21;94489.69;;;17.28;100.00
3096;BME280;1558;42.700;23.360;2022-09-17T00:03:53;94460.88;;;17.20;100.00
3096;BME280;1558;42.700;23.360;2022-09-17T00:06:22;94476.00;;;17.42;100.00
3096;BME280;1558;42.700;23.360;2022-09-17T00:08:51;94477.56;;;17.39;100.00
3096;BME280;1558;42.700;23.360;2022-09-17T00:11:22;94477.94;;;17.41;100.00
3096;BME280;1558;42.700;23.360;2022-09-17T00:13:51;94469.00;;;17.34;100.00
3096;BME280;1558;42.700;23.360;2022-09-17T00:16:25;94458.09;;;17.44;100.00
3096;BME280;1558;42.700;23.360;2022-09-17T00:18:56;94469.41;;;17.32;100.00
3096;BME280;1558;42.700;23.360;2022-09-17T00:21:24;94448.38;;;17.26;100.00
3096;BME280;1558;42.700;23.360;2022-09-17T00:23:53;94434.00;;;17.22;100.00
3096;BME280;1558;42.700;23.360;2022-09-17T00:26:21;94460.91;;;17.16;100.00
3096;BME280;1558;42.700;23.360;2022-09-17T00:28:50;94460.09;;;17.23;100.00
3096;BME280;1558;42.700;23.360;2022-09-17T00:31:19;94444.19;;;17.04;100.00
3096;BME280;1558;42.700;23.360;2022-09-17T00:33:47;94427.50;;;16.80;100.00
3096;BME280;1558;42.700;23.360;2022-09-17T00:36:17;94459.34;;;17.05;100.00
3096;BME280;1558;42.700;23.360;2022-09-17T00:38:48;94424.78;;;16.87;100.00
3096;BME280;1558;42.700;23.360;2022-09-17T00:41:16;94466.38;;;17.06;100.00
3096;BME280;1558;42.700;23.360;2022-09-17T00:43:46;94474.91;;;17.08;100.00
3096;BME280;1558;42.700;23.360;2022-09-17T00:46:26;94463.59;;;17.27;100.00
3096;BME280;1558;42.700;23.360;2022-09-17T00:48:58;94452.75;;;16.95;100.00
3096;BME280;1558;42.700;23.360;2022-09-17T00:51:33;94474.53;;;17.02;100.00
3096;BME280;1558;42.700;23.360;2022-09-17T00:54:03;94452.38;;;16.89;100.00
3096;BME280;1558;42.700;23.360;2022-09-17T00:56:35;94483.09;;;17.01;100.00
3096;BME280;1558;42.700;23.360;2022-09-17T00:59:03;94483.88;;;17.05;100.00
3096;BME280;1558;42.700;23.360;2022-09-17T01:01:32;94489.31;;;17.12;100.00
3096;BME280;1558;42.700;23.360;2022-09-17T01:03:59;94483.50;;;17.06;100.00
3096;BME280;1558;42.700;23.360;2022-09-17T01:06:33;94452.38;;;16.89;100.00
3096;BME280;1558;42.700;23.360;2022-09-17T01:09:15;94481.16;;;17.05;100.00
3096;BME280;1558;42.700;23.360;2022-09-17T01:11:56;94485.88;;;16.90;100.00
3096;BME280;1558;42.700;23.360;2022-09-17T01:14:38;94477.31;;;16.84;100.00
3096;BME280;1558;42.700;23.360;2022-09-17T01:17:17;94464.06;;;16.86;100.00
3096;BME280;1558;42.700;23.360;2022-09-17T01:22:58;94432.16;;;16.69;100.00
3096;BME280;1558;42.700;23.360;2022-09-17T01:25:39;94377.34;;;16.32;100.00
3096;BME280;1558;42.700;23.360;2022-09-17T01:28:31;94423.94;;;16.98;100.00
3096;BME280;1558;42.700;23.360;2022-09-17T01:31:07;94464.41;;;17.03;100.00
3096;BME280;1558;42.700;23.360;2022-09-17T01:33:49;94352.06;;;16.39;100.00
3096;BME280;1558;42.700;23.360;2022-09-17T01:36:32;94419.69;;;16.86;100.00
3096;BME280;1558;42.700;23.360;2022-09-17T01:39:05;94453.94;;;16.90;100.00
3096;BME280;1558;42.700;23.360;2022-09-17T01:41:40;94453.16;;;16.83;100.00
3096;BME280;1558;42.700;23.360;2022-09-17T01:44:14;94428.69;;;16.65;100.00
3096;BME280;1558;42.700;23.360;2022-09-17T01:46:49;94444.25;;;16.61;100.00
3096;BME280;1558;42.700;23.360;2022-09-17T01:49:20;94436.06;;;16.65;100.00
3096;BME280;1558;42.700;23.360;2022-09-17T01:51:52;94416.25;;;16.61;100.00
3096;BME280;1558;42.700;23.360;2022-09-17T01:54:23;94382.41;;;16.23;100.00
3096;BME280;1558;42.700;23.360;2022-09-17T01:56:55;94471.47;;;16.68;100.00
3096;BME280;1558;42.700;23.360;2022-09-17T01:59:30;94466.41;;;16.84;100.00
3096;BME280;1558;42.700;23.360;2022-09-17T02:02:06;94450.44;;;16.97;100.00
3096;BME280;1558;42.700;23.360;2022-09-17T02:04:37;94416.19;;;16.85;100.00
3096;BME280;1558;42.700;23.360;2022-09-17T02:07:13;94441.84;;;17.02;100.00
3096;BME280;1558;42.700;23.360;2022-09-17T02:09:50;94408.44;;;16.87;100.00
3096;BME280;1558;42.700;23.360;2022-09-17T02:12:25;94388.16;;;16.92;100.00
3096;BME280;1558;42.700;23.360;2022-09-17T02:14:58;94394.03;;;16.87;100.00
3096;BME280;1558;42.700;23.360;2022-09-17T02:17:33;94364.03;;;16.90;100.00
3096;BME280;1558;42.700;23.360;2022-09-17T02:20:02;94347.34;;;16.74;100.00
3096;BME280;1558;42.700;23.360;2022-09-17T02:22:36;94340.38;;;16.59;100.00
3096;BME280;1558;42.700;23.360;2022-09-17T02:25:11;94315.88;;;16.59;100.00
3096;BME280;1558;42.700;23.360;2022-09-17T02:27:47;94342.72;;;16.61;100.00
3096;BME280;1558;42.700;23.360;2022-09-17T02:30:17;94321.31;;;16.49;100.00
3096;BME280;1558;42.700;23.360;2022-09-17T02:32:47;94339.59;;;16.66;100.00
3096;BME280;1558;42.700;23.360;2022-09-17T02:35:15;94352.03;;;16.77;100.00
3096;BME280;1558;42.700;23.360;2022-09-17T02:37:43;94198.25;;;15.85;100.00
3096;BME280;1558;42.700;23.360;2022-09-17T02:40:13;94347.31;;;16.92;100.00
3096;BME280;1558;42.700;23.360;2022-09-17T02:42:58;94351.91;;;17.02;100.00
3096;BME280;1558;42.700;23.360;2022-09-17T02:45:40;94347.97;;;17.17;100.00
3096;BME280;1558;42.700;23.360;2022-09-17T02:48:37;94299.81;;;16.93;100.00
3096;BME280;1558;42.700;23.360;2022-09-17T02:51:25;94341.81;;;16.96;100.00
3096;BME280;1558;42.700;23.360;2022-09-17T02:54:06;94322.41;;;16.86;100.00
3096;BME280;1558;42.700;23.360;2022-09-17T02:56:43;94324.41;;;16.75;100.00
3096;BME280;1558;42.700;23.360;2022-09-17T02:59:18;94279.75;;;16.38;100.00
3096;BME280;1558;42.700;23.360;2022-09-17T03:01:55;94322.88;;;16.67;100.00
3096;BME280;1558;42.700;23.360;2022-09-17T03:04:29;94277.78;;;16.38;100.00
3096;BME280;1558;42.700;23.360;2022-09-17T03:06:59;94243.22;;;16.28;100.00
3096;BME280;1558;42.700;23.360;2022-09-17T03:09:31;94316.22;;;16.72;100.00
3096;BME280;1558;42.700;23.360;2022-09-17T03:11:59;94317.78;;;16.73;100.00
3096;BME280;1558;42.700;23.360;2022-09-17T03:14:28;94317.78;;;16.69;100.00
3096;BME280;1558;42.700;23.360;2022-09-17T03:16:55;94329.47;;;16.66;100.00
3096;BME280;1558;42.700;23.360;2022-09-17T03:19:24;94325.59;;;16.67;100.00
3096;BME280;1558;42.700;23.360;2022-09-17T03:21:54;94319.34;;;16.77;100.00
3096;BME280;1558;42.700;23.360;2022-09-17T03:24:22;94304.13;;;16.83;100.00
3096;BME280;1558;42.700;23.360;2022-09-17T03:26:50;94295.84;;;17.05;100.00
3096;BME280;1558;42.700;23.360;2022-09-17T03:29:18;94297.03;;;17.04;100.00
3096;BME280;1558;42.700;23.360;2022-09-17T03:31:46;94306.00;;;17.04;100.00
3096;BME280;1558;42.700;23.360;2022-09-17T03:34:14;94267.25;;;16.68;100.00
3096;BME280;1558;42.700;23.360;2022-09-17T03:36:42;94290.53;;;16.76;100.00
3096;BME280;1558;42.700;23.360;2022-09-17T03:39:11;94258.72;;;16.45;100.00
3096;BME280;1558;42.700;23.360;2022-09-17T03:41:39;94283.56;;;16.65;100.00
3096;BME280;1558;42.700;23.360;2022-09-17T03:44:07;94278.13;;;16.68;100.00
3096;BME280;1558;42.700;23.360;2022-09-17T03:46:36;94210.59;;;16.21;100.00
3096;BME280;1558;42.700;23.360;2022-09-17T03:49:04;94286.59;;;16.88;100.00
3096;BME280;1558;42.700;23.360;2022-09-17T03:51:32;94288.19;;;16.82;100.00
3096;BME280;1558;42.700;23.360;2022-09-17T03:54:00;94271.81;;;16.85;100.00
3096;BME280;1558;42.700;23.360;2022-09-17T03:56:29;94258.19;;;16.85;100.00
3096;BME280;1558;42.700;23.360;2022-09-17T03:58:57;94286.63;;;16.84;100.00
3096;BME280;1558;42.700;23.360;2022-09-17T04:01:26;94294.31;;;17.00;100.00
3096;BME280;1558;42.700;23.360;2022-09-17T04:03:55;94293.50;;;17.14;100.00
3096;BME280;1558;42.700;23.360;2022-09-17T04:06:23;94304.41;;;17.10;100.00
3096;BME280;1558;42.700;23.360;2022-09-17T04:08:51;94304.38;;;17.17;100.00
3096;BME280;1558;42.700;23.360;2022-09-17T04:11:19;94310.16;;;17.30;100.00
3096;BME280;1558;42.700;23.360;2022-09-17T04:13:48;94304.34;;;17.24;100.00
3096;BME280;1558;42.700;23.360;2022-09-17T04:16:16;94305.53;;;17.20;100.00
3096;BME280;1558;42.700;23.360;2022-09-17T04:18:44;94327.63;;;17.36;100.00
3096;BME280;1558;42.700;23.360;2022-09-17T04:21:12;94349.78;;;17.48;100.00
3096;BME280;1558;42.700;23.360;2022-09-17T04:23:40;94350.19;;;17.47;100.00
3096;BME280;1558;42.700;23.360;2022-09-17T04:26:07;94369.97;;;17.65;100.00
3096;BME280;1558;42.700;23.360;2022-09-17T04:28:36;94376.53;;;17.75;100.00
3096;BME280;1558;42.700;23.360;2022-09-17T04:31:05;94380.88;;;17.65;100.00
3096;BME280;1558;42.700;23.360;2022-09-17T04:33:33;94388.69;;;17.63;100.00
3096;BME280;1558;42.700;23.360;2022-09-17T04:36:03;94408.06;;;17.79;100.00
3096;BME280;1558;42.700;23.360;2022-09-17T04:38:31;94415.91;;;17.70;100.00
3096;BME280;1558;42.700;23.360;2022-09-17T04:40:59;94404.31;;;17.45;100.00
3096;BME280;1558;42.700;23.360;2022-09-17T04:43:27;94408.59;;;17.42;100.00
3096;BME280;1558;42.700;23.360;2022-09-17T04:45:54;94438.97;;;17.48;100.00
3096;BME280;1558;42.700;23.360;2022-09-17T04:48:24;94450.69;;;17.38;100.00
3096;BME280;1558;42.700;23.360;2022-09-17T04:50:52;94439.81;;;17.31;100.00
3096;BME280;1558;42.700;23.360;2022-09-17T04:53:19;94453.06;;;17.29;100.00
3096;BME280;1558;42.700;23.360;2022-09-17T04:55:47;94472.97;;;17.15;100.00
3096;BME280;1558;42.700;23.360;2022-09-17T04:58:15;94485.81;;;17.08;100.00
3096;BME280;1558;42.700;23.360;2022-09-17T05:00:43;94476.53;;;16.95;100.00
3096;BME280;1558;42.700;23.360;2022-09-17T05:03:11;94483.50;;;16.99;100.00
3096;BME280;1558;42.700;23.360;2022-09-17T05:05:40;94482.72;;;16.99;100.00
3096;BME280;1558;42.700;23.360;2022-09-17T05:08:08;94471.06;;;16.95;100.00
3096;BME280;1558;42.700;23.360;2022-09-17T05:10:37;94471.44;;;17.00;100.00
3096;BME280;1558;42.700;23.360;2022-09-17T05:13:05;94448.06;;;17.03;100.00
3096;BME280;1558;42.700;23.360;2022-09-17T05:15:33;94454.66;;;17.16;100.00
3096;BME280;1558;42.700;23.360;2022-09-17T05:18:01;94451.94;;;17.23;100.00
3096;BME280;1558;42.700;23.360;2022-09-17T05:20:28;94451.53;;;17.28;100.00
3096;BME280;1558;42.700;23.360;2022-09-17T05:22:58;94438.28;;;17.23;100.00
3096;BME280;1558;42.700;23.360;2022-09-17T05:25:25;94429.75;;;17.21;100.00
3096;BME280;1558;42.700;23.360;2022-09-17T05:27:53;94425.44;;;17.20;100.00
3096;BME280;1558;42.700;23.360;2022-09-17T05:30:22;94412.97;;;17.19;100.00
3096;BME280;1558;42.700;23.360;2022-09-17T05:32:57;94410.25;;;17.19;100.00
3096;BME280;1558;42.700;23.360;2022-09-17T05:35:25;94428.19;;;17.23;100.00
3096;BME280;1558;42.700;23.360;2022-09-17T05:37:58;94435.94;;;17.21;100.00
3096;BME280;1558;42.700;23.360;2022-09-17T05:40:26;94426.59;;;17.22;100.00
3096;BME280;1558;42.700;23.360;2022-09-17T05:42:57;94430.13;;;17.19;100.00
3096;BME280;1558;42.700;23.360;2022-09-17T05:45:25;94440.59;;;17.31;100.00
3096;BME280;1558;42.700;23.360;2022-09-17T05:47:56;94445.66;;;17.29;100.00
3096;BME280;1558;42.700;23.360;2022-09-17T05:50:25;94441.81;;;17.23;100.00
3096;BME280;1558;42.700;23.360;2022-09-17T05:52:54;94453.06;;;17.29;100.00
3096;BME280;1558;42.700;23.360;2022-09-17T05:55:23;94452.25;;;17.39;100.00
3096;BME280;1558;42.700;23.360;2022-09-17T05:57:53;94449.94;;;17.34;100.00
3096;BME280;1558;42.700;23.360;2022-09-17T06:00:21;94446.13;;;17.14;100.00
3096;BME280;1558;42.700;23.360;2022-09-17T06:02:53;94453.13;;;17.01;100.00
3096;BME280;1558;42.700;23.360;2022-09-17T06:05:21;94451.97;;;17.02;100.00
3096;BME280;1558;42.700;23.360;2022-09-17T06:07:49;94443.00;;;17.05;100.00
3096;BME280;1558;42.700;23.360;2022-09-17T06:10:18;94449.22;;;17.16;100.00
3096;BME280;1558;42.700;23.360;2022-09-17T06:12:47;94469.06;;;17.20;100.00
3096;BME280;1558;42.700;23.360;2022-09-17T06:15:15;94469.06;;;17.23;100.00
3096;BME280;1558;42.700;23.360;2022-09-17T06:17:43;94476.81;;;17.32;100.00
3096;BME280;1558;42.700;23.360;2022-09-17T06:20:10;94497.06;;;17.31;100.00
3096;BME280;1558;42.700;23.360;2022-09-17T06:22:38;94493.94;;;17.29;100.00
3096;BME280;1558;42.700;23.360;2022-09-17T06:25:07;94496.69;;;17.29;100.00
3096;BME280;1558;42.700;23.360;2022-09-17T06:27:35;94504.84;;;17.36;100.00
3096;BME280;1558;42.700;23.360;2022-09-17T06:30:05;94517.28;;;17.44;100.00
3096;BME280;1558;42.700;23.360;2022-09-17T06:32:34;94538.69;;;17.45;100.00
3096;BME280;1558;42.700;23.360;2022-09-17T06:35:02;94547.28;;;17.40;100.00
3096;BME280;1558;42.700;23.360;2022-09-17T06:37:32;94547.31;;;17.30;100.00
3096;BME280;1558;42.700;23.360;2022-09-17T06:40:07;94548.84;;;17.31;100.00
3096;BME280;1558;42.700;23.360;2022-09-17T06:42:35;94546.16;;;17.27;100.00
3096;BME280;1558;42.700;23.360;2022-09-17T06:45:05;94542.63;;;17.27;100.00
3096;BME280;1558;42.700;23.360;2022-09-17T06:47:37;94535.63;;;17.26;100.00
3096;BME280;1558;42.700;23.360;2022-09-17T06:50:05;94510.69;;;17.31;100.00
3096;BME280;1558;42.700;23.360;2022-09-17T06:52:33;94505.22;;;17.38;100.00
3096;BME280;1558;42.700;23.360;2022-09-17T06:55:01;94494.69;;;17.47;100.00
3096;BME280;1558;42.700;23.360;2022-09-17T06:57:30;94496.28;;;17.34;100.00
3096;BME280;1558;42.700;23.360;2022-09-17T06:59:58;94504.84;;;17.32;100.00
3096;BME280;1558;42.700;23.360;2022-09-17T07:02:27;94514.97;;;17.35;100.00
3096;BME280;1558;42.700;23.360;2022-09-17T07:04:55;94502.50;;;17.38;100.00
3096;BME280;1558;42.700;23.360;2022-09-17T07:07:23;94481.09;;;17.40;100.00
3096;BME280;1558;42.700;23.360;2022-09-17T07:09:51;94468.97;;;17.55;100.00
3096;BME280;1558;42.700;23.360;2022-09-17T07:12:19;94455.25;;;17.69;100.00
3096;BME280;1558;42.700;23.360;2022-09-17T07:14:47;94445.13;;;17.70;100.00
3096;BME280;1558;42.700;23.360;2022-09-17T07:17:15;94442.78;;;17.75;100.00
3096;BME280;1558;42.700;23.360;2022-09-17T07:19:45;94440.84;;;17.72;100.00
3096;BME280;1558;42.700;23.360;2022-09-17T07:22:12;94435.88;;;17.53;100.00
3096;BME280;1558;42.700;23.360;2022-09-17T07:24:40;94429.19;;;17.68;100.00
3096;BME280;1558;42.700;23.360;2022-09-17T07:27:08;94409.91;;;17.96;100.00
3096;BME280;1558;42.700;23.360;2022-09-17T07:29:36;94421.03;;;18.23;100.00
3096;BME280;1558;42.700;23.360;2022-09-17T07:32:06;94430.19;;;17.95;100.00
3096;BME280;1558;42.700;23.360;2022-09-17T07:34:34;94445.91;;;18.36;100.00
3096;BME280;1558;42.700;23.360;2022-09-17T07:37:04;94431.97;;;18.71;100.00
3096;BME280;1558;42.700;23.360;2022-09-17T07:39:32;94441.28;;;19.18;100.00
3096;BME280;1558;42.700;23.360;2022-09-17T07:42:00;94427.06;;;18.96;100.00
3096;BME280;1558;42.700;23.360;2022-09-17T07:44:29;94410.66;;;19.64;100.00
3096;BME280;1558;42.700;23.360;2022-09-17T07:46:57;94420.50;;;19.91;100.00
3096;BME280;1558;42.700;23.360;2022-09-17T07:49:25;94417.28;;;20.50;100.00
3096;BME280;1558;42.700;23.360;2022-09-17T07:51:53;94418.53;;;21.15;100.00
3096;BME280;1558;42.700;23.360;2022-09-17T07:54:22;94429.09;;;21.16;100.00
3096;BME280;1558;42.700;23.360;2022-09-17T07:56:50;94423.97;;;20.22;100.00
3096;BME280;1558;42.700;23.360;2022-09-17T07:59:18;94420.28;;;20.05;100.00
3096;BME280;1558;42.700;23.360;2022-09-17T08:01:47;94400.44;;;20.51;100.00
3096;BME280;1558;42.700;23.360;2022-09-17T08:04:15;94413.16;;;20.61;100.00
3096;BME280;1558;42.700;23.360;2022-09-17T08:06:43;94387.44;;;20.55;100.00
3096;BME280;1558;42.700;23.360;2022-09-17T08:09:14;94404.34;;;20.73;100.00
3096;BME280;1558;42.700;23.360;2022-09-17T08:11:44;94406.63;;;20.78;100.00
3096;BME280;1558;42.700;23.360;2022-09-17T08:14:27;94410.66;;;21.17;100.00
3096;BME280;1558;42.700;23.360;2022-09-17T08:16:55;94402.63;;;21.26;100.00
3096;BME280;1558;42.700;23.360;2022-09-17T08:19:23;94380.69;;;21.45;100.00
3096;BME280;1558;42.700;23.360;2022-09-17T08:21:51;94386.03;;;21.33;100.00
3096;BME280;1558;42.700;23.360;2022-09-17T08:24:19;94392.94;;;21.41;100.00
3096;BME280;1558;42.700;23.360;2022-09-17T08:26:48;94378.28;;;21.67;100.00
3096;BME280;1558;42.700;23.360;2022-09-17T08:29:17;94374.72;;;22.38;100.00
3096;BME280;1558;42.700;23.360;2022-09-17T08:31:45;94370.38;;;23.02;100.00
3096;BME280;1558;42.700;23.360;2022-09-17T08:34:13;94372.31;;;23.75;100.00
3096;BME280;1558;42.700;23.360;2022-09-17T08:36:40;94355.31;;;23.22;100.00
3096;BME280;1558;42.700;23.360;2022-09-17T08:39:08;94366.19;;;22.97;100.00
3096;BME280;1558;42.700;23.360;2022-09-17T08:41:54;94357.66;;;22.63;100.00
3096;BME280;1558;42.700;23.360;2022-09-17T08:44:26;94372.16;;;22.31;100.00
3096;BME280;1558;42.700;23.360;2022-09-17T08:46:59;94372.75;;;22.22;100.00
3096;BME280;1558;42.700;23.360;2022-09-17T08:49:32;94370.31;;;21.92;100.00
3096;BME280;1558;42.700;23.360;2022-09-17T08:52:27;94342.31;;;21.62;100.00
3096;BME280;1558;42.700;23.360;2022-09-17T08:55:01;94351.56;;;21.87;100.00
3096;BME280;1558;42.700;23.360;2022-09-17T08:57:37;94364.13;;;21.88;100.00
3096;BME280;1558;42.700;23.360;2022-09-17T09:00:11;94366.38;;;21.74;100.00
3096;BME280;1558;42.700;23.360;2022-09-17T09:02:54;94362.34;;;21.78;100.00
3096;BME280;1558;42.700;23.360;2022-09-17T09:05:29;94355.81;;;21.72;100.00
3096;BME280;1558;42.700;23.360;2022-09-17T09:08:03;94361.28;;;21.56;100.00
3096;BME280;1558;42.700;23.360;2022-09-17T09:10:42;94370.56;;;21.42;100.00
3096;BME280;1558;42.700;23.360;2022-09-17T09:13:14;94238.03;;;20.47;100.00
3096;BME280;1558;42.700;23.360;2022-09-17T09:15:48;94377.03;;;21.32;100.00
3096;BME280;1558;42.700;23.360;2022-09-17T09:18:20;94387.00;;;21.23;100.00
3096;BME280;1558;42.700;23.360;2022-09-17T09:20:50;94375.69;;;21.21;100.00
3096;BME280;1558;42.700;23.360;2022-09-17T09:23:23;94387.75;;;21.27;100.00
3096;BME280;1558;42.700;23.360;2022-09-17T09:25:59;94367.00;;;21.03;100.00
3096;BME280;1558;42.700;23.360;2022-09-17T09:28:38;94402.78;;;21.19;100.00
3096;BME280;1558;42.700;23.360;2022-09-17T09:31:17;94418.66;;;21.08;100.00
3096;BME280;1558;42.700;23.360;2022-09-17T09:33:48;94423.91;;;20.99;100.00
3096;BME280;1558;42.700;23.360;2022-09-17T09:36:17;94426.03;;;20.87;100.00
3096;BME280;1558;42.700;23.360;2022-09-17T09:38:52;94430.03;;;20.83;100.00
3096;BME280;1558;42.700;23.360;2022-09-17T09:41:26;94436.38;;;20.80;100.00
3096;BME280;1558;42.700;23.360;2022-09-17T09:44:02;94442.03;;;20.69;100.00
3096;BME280;1558;42.700;23.360;2022-09-17T09:46:49;94452.00;;;20.56;100.00
3096;BME280;1558;42.700;23.360;2022-09-17T09:49:28;94446.25;;;20.51;100.00
3096;BME280;1558;42.700;23.360;2022-09-17T09:52:10;94429.06;;;20.20;100.00
3096;BME280;1558;42.700;23.360;2022-09-17T09:54:53;94471.06;;;20.10;100.00
3096;BME280;1558;42.700;23.360;2022-09-17T09:57:34;94464.41;;;19.81;100.00
3096;BME280;1558;42.700;23.360;2022-09-17T10:00:25;94475.25;;;19.57;100.00
3096;BME280;1558;42.700;23.360;2022-09-17T10:02:59;94475.69;;;19.15;100.00
3096;BME280;1558;42.700;23.360;2022-09-17T10:05:28;94453.75;;;18.81;100.00
3096;BME280;1558;42.700;23.360;2022-09-17T10:07:57;94433.34;;;18.45;100.00
3096;BME280;1558;42.700;23.360;2022-09-17T10:10:25;94424.50;;;18.27;100.00
3096;BME280;1558;42.700;23.360;2022-09-17T10:13:06;94398.69;;;18.39;100.00
3096;BME280;1558;42.700;23.360;2022-09-17T10:15:35;94404.16;;;18.35;100.00
3096;BME280;1558;42.700;23.360;2022-09-17T10:18:11;94384.84;;;18.12;100.00
3096;BME280;1558;42.700;23.360;2022-09-17T10:20:54;94367.84;;;17.90;100.00
3096;BME280;1558;42.700;23.360;2022-09-17T10:23:24;94362.47;;;17.76;100.00
3096;BME280;1558;42.700;23.360;2022-09-17T10:25:53;94349.69;;;17.66;100.00
3096;BME280;1558;42.700;23.360;2022-09-17T10:28:30;94333.72;;;17.68;100.00
3096;BME280;1558;42.700;23.360;2022-09-17T10:31:03;94341.53;;;17.59;100.00
3096;BME280;1558;42.700;23.360;2022-09-17T10:33:39;94345.09;;;17.52;100.00
3096;BME280;1558;42.700;23.360;2022-09-17T10:36:11;94364.19;;;17.52;100.00
3096;BME280;1558;42.700;23.360;2022-09-17T10:38:41;94359.50;;;17.53;100.00
3096;BME280;1558;42.700;23.360;2022-09-17T10:41:17;94350.13;;;17.50;100.00
3096;BME280;1558;42.700;23.360;2022-09-17T10:43:48;94354.09;;;17.39;100.00
3096;BME280;1558;42.700;23.360;2022-09-17T10:46:20;94335.75;;;17.43;100.00
3096;BME280;1558;42.700;23.360;2022-09-17T10:48:58;94332.28;;;17.39;100.00
3096;BME280;1558;42.700;23.360;2022-09-17T10:51:33;94338.06;;;17.48;100.00
3096;BME280;1558;42.700;23.360;2022-09-17T10:54:12;94322.06;;;17.57;100.00
3096;BME280;1558;42.700;23.360;2022-09-17T10:56:45;94328.53;;;17.81;100.00
3096;BME280;1558;42.700;23.360;2022-09-17T10:59:36;94308.66;;;17.84;100.00
3096;BME280;1558;42.700;23.360;2022-09-17T11:02:30;94315.50;;;18.06;100.00
3096;BME280;1558;42.700;23.360;2022-09-17T11:05:09;94327.13;;;18.13;100.00
3096;BME280;1558;42.700;23.360;2022-09-17T11:07:48;94313.75;;;18.26;100.00
3096;BME280;1558;42.700;23.360;2022-09-17T11:10:25;94322.72;;;18.26;100.00
3096;BME280;1558;42.700;23.360;2022-09-17T11:13:06;94319.13;;;18.33;100.00
3096;BME280;1558;42.700;23.360;2022-09-17T11:15:49;94341.66;;;18.48;100.00
3096;BME280;1558;42.700;23.360;2022-09-17T11:18:35;94326.31;;;18.61;100.00
3096;BME280;1558;42.700;23.360;2022-09-17T11:21:28;94324.09;;;18.86;100.00
3096;BME280;1558;42.700;23.360;2022-09-17T11:24:14;94366.78;;;19.10;100.00
3096;BME280;1558;42.700;23.360;2022-09-17T11:26:53;94335.47;;;19.15;100.00
3096;BME280;1558;42.700;23.360;2022-09-17T11:29:47;94363.09;;;19.24;100.00
3096;BME280;1558;42.700;23.360;2022-09-17T11:32:44;94353.75;;;19.21;100.00
3096;BME280;1558;42.700;23.360;2022-09-17T11:35:20;94365.72;;;19.31;100.00
3096;BME280;1558;42.700;23.360;2022-09-17T11:37:54;94353.28;;;19.26;100.00
3096;BME280;1558;42.700;23.360;2022-09-17T11:40:31;94362.44;;;19.13;100.00
3096;BME280;1558;42.700;23.360;2022-09-17T11:43:11;94358.50;;;19.14;100.00
3096;BME280;1558;42.700;23.360;2022-09-17T11:45:51;94346.50;;;19.04;100.00
3096;BME280;1558;42.700;23.360;2022-09-17T11:48:26;94344.91;;;19.10;100.00
3096;BME280;1558;42.700;23.360;2022-09-17T11:51:01;94339.44;;;19.10;100.00
3096;BME280;1558;42.700;23.360;2022-09-17T11:53:34;94327.72;;;19.10;100.00
3096;BME280;1558;42.700;23.360;2022-09-17T11:56:09;94310.59;;;19.06;100.00
3096;BME280;1558;42.700;23.360;2022-09-17T11:58:45;94320.47;;;18.96;100.00
3096;BME280;1558;42.700;23.360;2022-09-17T12:01:18;94316.88;;;19.03;100.00
3096;BME280;1558;42.700;23.360;2022-09-17T12:03:52;94320.09;;;18.94;100.00
3096;BME280;1558;42.700;23.360;2022-09-17T12:06:31;94316.09;;;19.02;100.00
3096;BME280;1558;42.700;23.360;2022-09-17T12:09:08;94321.56;;;19.02;100.00
3096;BME280;1558;42.700;23.360;2022-09-17T12:11:42;94328.50;;;19.10;100.00
3096;BME280;1558;42.700;23.360;2022-09-17T12:14:19;94305.31;;;18.88;100.00
3096;BME280;1558;42.700;23.360;2022-09-17T12:16:51;94311.63;;;18.85;100.00
3096;BME280;1558;42.700;23.360;2022-09-17T12:19:24;94300.03;;;18.74;100.00
3096;BME280;1558;42.700;23.360;2022-09-17T12:21:59;94304.03;;;18.66;100.00
3096;BME280;1558;42.700;23.360;2022-09-17T12:24:29;94308.03;;;18.54;100.00
3096;BME280;1558;42.700;23.360;2022-09-17T12:27:07;94300.31;;;18.46;100.00
3096;BME280;1558;42.700;23.360;2022-09-17T12:35:45;94288.59;;;18.45;100.00
3096;BME280;1558;42.700;23.360;2022-09-17T12:41:44;94279.69;;;18.38;100.00
3096;BME280;1558;42.700;23.360;2022-09-17T12:44:33;94280.97;;;18.26;100.00
3096;BME280;1558;42.700;23.360;2022-09-17T12:47:22;94277.88;;;18.27;100.00
3096;BME280;1558;42.700;23.360;2022-09-17T12:50:02;94263.69;;;18.40;100.00
3096;BME280;1558;42.700;23.360;2022-09-17T12:52:48;94255.97;;;18.31;100.00
3096;BME280;1558;42.700;23.360;2022-09-17T12:55:28;94268.53;;;18.25;100.00
3096;BME280;1558;42.700;23.360;2022-09-17T12:58:05;94280.59;;;18.27;100.00
3096;BME280;1558;42.700;23.360;2022-09-17T13:00:39;94272.28;;;18.38;100.00
3096;BME280;1558;42.700;23.360;2022-09-17T13:03:16;94270.06;;;18.26;100.00
3096;BME280;1558;42.700;23.360;2022-09-17T13:06:02;94254.88;;;18.25;100.00
3096;BME280;1558;42.700;23.360;2022-09-17T13:08:49;94266.09;;;18.31;100.00
3096;BME280;1558;42.700;23.360;2022-09-17T13:11:51;94252.72;;;18.43;100.00
3096;BME280;1558;42.700;23.360;2022-09-17T13:14:29;94260.66;;;18.31;100.00
3096;BME280;1558;42.700;23.360;2022-09-17T13:17:04;94255.34;;;18.16;100.00
3096;BME280;1558;42.700;23.360;2022-09-17T13:19:38;94263.22;;;18.07;100.00
3096;BME280;1558;42.700;23.360;2022-09-17T13:22:13;94272.69;;;17.96;100.00
3096;BME280;1558;42.700;23.360;2022-09-17T13:24:44;94264.84;;;18.01;100.00
3096;BME280;1558;42.700;23.360;2022-09-17T13:27:22;94265.22;;;18.03;100.00
3096;BME280;1558;42.700;23.360;2022-09-17T13:30:00;94250.91;;;17.92;100.00
3096;BME280;1558;42.700;23.360;2022-09-17T13:32:47;94234.84;;;18.01;100.00
3096;BME280;1558;42.700;23.360;2022-09-17T13:35:46;94219.69;;;17.97;100.00
3096;BME280;1558;42.700;23.360;2022-09-17T13:38:16;94230.53;;;18.04;100.00
3096;BME280;1558;42.700;23.360;2022-09-17T13:40:49;94215.22;;;18.13;100.00
3096;BME280;1558;42.700;23.360;2022-09-17T13:43:21;94223.78;;;18.12;100.00